Time;durP1;ratioP1;P1;durP2;ratioP2;P2;SDS_P1;SDS_P2;PMS_P1;PMS_P2;Temp;Humidity;BMP_temperature;BMP_pressure;BME280_temperature;BME280_humidity;BME280_pressure;Samples;Min_cycle;Max_cycle;Signal;HPM_P1;HPM_P2
2021/12/22 00:02:01;;;;;;;85.57;26.77;;;-1.60;99.90;;;;;;5071970;28;20200;-79
2021/12/22 00:04:32;;;;;;;95.57;26.53;;;-1.60;99.90;;;;;;5071632;28;20238;-80
2021/12/22 00:06:59;;;;;;;80.23;26.47;;;-1.50;99.90;;;;;;5071667;28;20219;-80
2021/12/22 00:09:26;;;;;;;90.80;25.87;;;-1.50;99.90;;;;;;5074998;28;20253;-80
2021/12/22 00:11:53;;;;;;;79.50;27.27;;;-1.50;99.90;;;;;;5075429;28;20278;-79
2021/12/22 00:14:20;;;;;;;91.43;28.57;;;-1.50;99.90;;;;;;5075134;28;20644;-80
2021/12/22 00:16:47;;;;;;;84.07;28.40;;;-1.40;99.90;;;;;;5075107;28;20593;-79
2021/12/22 00:19:14;;;;;;;87.23;27.30;;;-1.40;99.90;;;;;;5075014;28;20556;-80
2021/12/22 00:21:42;;;;;;;77.63;25.93;;;-1.40;99.90;;;;;;5075513;28;20192;-80
2021/12/22 00:24:09;;;;;;;81.97;27.50;;;-1.40;99.90;;;;;;5075615;28;20237;-80
2021/12/22 00:26:36;;;;;;;87.53;26.07;;;-1.40;99.90;;;;;;5074966;28;20243;-79
2021/12/22 00:29:04;;;;;;;78.97;23.47;;;-1.30;99.90;;;;;;5075138;28;20206;-79
2021/12/22 00:31:39;;;;;;;68.50;23.13;;;-1.30;99.90;;;;;;5075164;28;20215;-80
2021/12/22 00:34:15;;;;;;;75.40;22.87;;;-1.30;99.90;;;;;;5075130;28;20637;-79
2021/12/22 00:36:44;;;;;;;71.53;24.10;;;-1.30;99.90;;;;;;5075565;28;20564;-80
2021/12/22 00:39:11;;;;;;;66.60;23.50;;;-1.30;99.90;;;;;;5075272;28;20592;-79
2021/12/22 00:41:38;;;;;;;73.73;24.80;;;-1.30;99.90;;;;;;5074979;28;20195;-79
2021/12/22 00:44:06;;;;;;;77.40;24.70;;;-1.30;99.90;;;;;;5074552;28;20199;-80
2021/12/22 00:46:33;;;;;;;70.77;23.20;;;-1.30;99.90;;;;;;5074956;28;20191;-79
2021/12/22 00:49:00;;;;;;;77.43;24.80;;;-1.30;99.90;;;;;;5074861;28;20238;-79
2021/12/22 00:51:27;;;;;;;75.97;24.40;;;-1.30;99.90;;;;;;5074505;28;20652;-80
2021/12/22 00:53:56;;;;;;;69.33;23.83;;;-1.30;99.90;;;;;;5074702;28;20220;-79
2021/12/22 00:56:23;;;;;;;76.97;24.33;;;-1.30;99.90;;;;;;5074315;28;20671;-80
2021/12/22 00:58:50;;;;;;;62.37;23.97;;;-1.30;99.90;;;;;;5074439;28;20199;-79
2021/12/22 01:01:17;;;;;;;76.27;25.07;;;-1.30;99.90;;;;;;5074553;28;20196;-80
2021/12/22 01:03:44;;;;;;;66.37;22.47;;;-1.30;99.90;;;;;;5074783;28;20224;-80
2021/12/22 01:06:13;;;;;;;78.37;24.17;;;-1.30;99.90;;;;;;5074956;28;20192;-80
2021/12/22 01:08:40;;;;;;;70.97;23.90;;;-1.30;99.90;;;;;;5074172;28;20196;-79
2021/12/22 01:11:09;;;;;;;64.73;23.57;;;-1.30;99.90;;;;;;5073907;28;20688;-80
2021/12/22 01:13:36;;;;;;;75.87;24.57;;;-1.30;99.90;;;;;;5074335;28;20219;-79
2021/12/22 01:16:03;;;;;;;76.97;26.03;;;-1.30;99.90;;;;;;5073986;28;20580;-79
2021/12/22 01:18:32;;;;;;;63.63;24.20;;;-1.40;99.90;;;;;;5074236;28;20237;-79
2021/12/22 01:21:08;;;;;;;68.07;25.50;;;-1.40;99.90;;;;;;5073964;28;20720;-80
2021/12/22 01:23:47;;;;;;;66.47;24.80;;;-1.40;99.90;;;;;;5074242;28;20179;-79
2021/12/22 01:26:16;;;;;;;67.43;24.50;;;-1.40;99.90;;;;;;5074057;28;20190;-79
2021/12/22 01:28:43;;;;;;;68.97;24.93;;;-1.50;99.90;;;;;;5074031;28;20200;-80
2021/12/22 01:31:15;;;;;;;60.97;23.50;;;-1.50;99.90;;;;;;5074055;28;20200;-79
2021/12/22 01:33:42;;;;;;;57.17;21.93;;;-1.50;99.90;;;;;;5073695;28;20203;-79
2021/12/22 01:36:09;;;;;;;58.03;22.37;;;-1.50;99.90;;;;;;5073905;28;20245;-79
2021/12/22 01:38:36;;;;;;;55.77;20.00;;;-1.60;99.90;;;;;;5073955;28;20191;-79
2021/12/22 01:41:04;;;;;;;52.70;20.97;;;-1.50;99.90;;;;;;5073842;28;20269;-79
2021/12/22 01:43:32;;;;;;;55.63;20.60;;;-1.60;99.90;;;;;;5073940;28;20245;-79
2021/12/22 01:49:08;;;;;;;48.50;20.43;;;-1.60;99.90;;;;;;5073732;28;20245;-80
2021/12/22 01:49:11;;;;;;;46.77;19.77;;;-1.50;99.90;;;;;;5073292;28;20192;-79
2021/12/22 01:51:45;;;;;;;43.47;18.80;;;-1.50;99.90;;;;;;5073666;28;20199;-79
2021/12/22 01:54:15;;;;;;;51.30;19.43;;;-1.50;99.90;;;;;;5073171;28;20584;-79
2021/12/22 01:56:43;;;;;;;49.63;19.33;;;-1.50;99.90;;;;;;5073550;28;20226;-80
2021/12/22 01:59:12;;;;;;;48.47;20.03;;;-1.50;99.90;;;;;;5073114;28;20657;-80
2021/12/22 02:01:40;;;;;;;47.97;19.47;;;-1.60;99.90;;;;;;5073411;28;20192;-79
2021/12/22 02:04:10;;;;;;;42.70;18.77;;;-1.60;99.90;;;;;;5072982;28;20199;-79
2021/12/22 02:06:40;;;;;;;43.40;17.97;;;-1.60;99.90;;;;;;5073071;28;20191;-79
2021/12/22 02:09:09;;;;;;;48.37;19.93;;;-1.60;99.90;;;;;;5072836;28;20656;-80
2021/12/22 02:11:36;;;;;;;45.83;18.30;;;-1.60;99.90;;;;;;5072924;28;20228;-80
2021/12/22 02:14:05;;;;;;;43.40;18.57;;;-1.60;99.90;;;;;;5073118;28;20269;-80
2021/12/22 02:16:37;;;;;;;39.77;17.27;;;-1.60;99.90;;;;;;5073132;28;20198;-79
2021/12/22 02:19:08;;;;;;;44.60;17.60;;;-1.60;99.90;;;;;;5072757;28;20187;-79
2021/12/22 02:21:42;;;;;;;45.13;19.97;;;-1.70;99.90;;;;;;5072993;28;20273;-79
2021/12/22 02:24:09;;;;;;;48.20;19.67;;;-1.60;99.90;;;;;;5073078;28;20189;-80
2021/12/22 02:26:40;;;;;;;47.80;19.13;;;-1.70;99.90;;;;;;5072974;28;20260;-79
2021/12/22 02:29:18;;;;;;;43.67;19.30;;;-1.70;99.90;;;;;;5072964;28;20544;-79
2021/12/22 02:31:49;;;;;;;43.23;18.57;;;-1.70;99.90;;;;;;5072156;28;20188;-79
2021/12/22 02:34:17;;;;;;;40.90;16.90;;;-1.70;99.90;;;;;;5072456;28;20230;-80
2021/12/22 02:36:45;;;;;;;40.97;16.27;;;-1.70;99.90;;;;;;5072523;28;20294;-79
2021/12/22 02:39:13;;;;;;;39.07;15.70;;;-1.80;99.90;;;;;;5072440;28;20653;-80
2021/12/22 02:41:40;;;;;;;42.43;16.77;;;-1.80;99.90;;;;;;5072799;28;20196;-79
2021/12/22 02:44:10;;;;;;;38.07;15.97;;;-1.90;99.90;;;;;;5072439;28;20637;-80
2021/12/22 02:46:39;;;;;;;39.37;15.43;;;-1.90;99.90;;;;;;5072708;28;20188;-79
2021/12/22 02:49:08;;;;;;;36.00;14.70;;;-1.90;99.90;;;;;;5072606;28;20199;-79
2021/12/22 02:51:36;;;;;;;39.33;16.53;;;-1.90;99.90;;;;;;5072570;28;20268;-80
2021/12/22 02:54:11;;;;;;;42.17;16.40;;;-2.00;99.90;;;;;;5072567;28;20555;-80
2021/12/22 02:56:51;;;;;;;35.67;15.50;;;-2.10;99.90;;;;;;5072733;28;20686;-79
2021/12/22 02:59:38;;;;;;;40.13;16.63;;;-2.10;99.90;;;;;;5072256;28;20632;-80
2021/12/22 03:02:16;;;;;;;37.93;16.00;;;-2.10;99.90;;;;;;5077647;28;20279;-79
2021/12/22 03:04:50;;;;;;;41.07;16.17;;;-2.10;99.90;;;;;;5072201;28;20195;-80
2021/12/22 03:07:19;;;;;;;42.40;16.00;;;-2.10;99.90;;;;;;5072249;28;20633;-80
2021/12/22 03:09:57;;;;;;;36.93;14.40;;;-2.10;99.90;;;;;;5072405;28;20588;-80
2021/12/22 03:12:24;;;;;;;35.17;14.57;;;-2.10;99.90;;;;;;5072309;28;20703;-80
2021/12/22 03:14:51;;;;;;;37.03;14.20;;;-2.10;99.90;;;;;;5072510;28;20215;-79
2021/12/22 03:17:18;;;;;;;42.60;15.87;;;-2.10;99.90;;;;;;5072079;28;20235;-80
2021/12/22 03:19:45;;;;;;;31.03;13.27;;;-2.10;99.90;;;;;;5072376;28;20203;-79
2021/12/22 03:22:17;;;;;;;31.40;13.63;;;-2.00;99.90;;;;;;5072000;28;20644;-80
2021/12/22 03:24:47;;;;;;;36.37;14.03;;;-2.00;99.90;;;;;;5072331;28;20188;-79
2021/12/22 03:27:15;;;;;;;30.33;14.23;;;-2.00;99.90;;;;;;5072266;28;20649;-80
2021/12/22 03:29:42;;;;;;;37.73;14.93;;;-2.00;99.90;;;;;;5071910;28;20717;-79
2021/12/22 03:32:11;;;;;;;36.83;14.67;;;-2.00;99.90;;;;;;5072260;28;20196;-79
2021/12/22 03:34:38;;;;;;;37.40;15.87;;;-2.00;99.90;;;;;;5071762;28;20625;-79
2021/12/22 03:37:06;;;;;;;36.83;16.43;;;-2.00;99.90;;;;;;5072247;28;20198;-79
2021/12/22 03:39:33;;;;;;;40.13;15.50;;;-2.00;99.90;;;;;;5072162;28;20187;-80
2021/12/22 03:42:01;;;;;;;31.83;13.20;;;-2.00;99.90;;;;;;5071809;28;20649;-79
2021/12/22 03:44:29;;;;;;;37.60;15.90;;;-2.00;99.90;;;;;;5075348;28;20203;-80
2021/12/22 03:46:59;;;;;;;33.07;14.50;;;-2.00;99.90;;;;;;5076318;28;20195;-80
2021/12/22 03:49:27;;;;;;;42.77;16.93;;;-2.00;99.90;;;;;;5076188;28;20192;-80
2021/12/22 03:51:54;;;;;;;35.10;13.90;;;-1.90;99.90;;;;;;5076136;28;20196;-80
2021/12/22 03:54:21;;;;;;;29.57;12.47;;;-1.90;99.90;;;;;;5075897;28;20215;-79
2021/12/22 03:56:49;;;;;;;31.73;13.67;;;-1.90;99.90;;;;;;5075767;28;20188;-79
2021/12/22 03:59:17;;;;;;;34.30;13.67;;;-1.90;99.90;;;;;;5075773;28;20192;-80
2021/12/22 04:01:46;;;;;;;32.27;13.90;;;-1.90;99.90;;;;;;5075766;28;20615;-79
2021/12/22 04:04:16;;;;;;;40.53;16.20;;;-1.90;99.90;;;;;;5075410;28;20207;-79
2021/12/22 04:06:44;;;;;;;38.13;15.03;;;-1.90;99.90;;;;;;5075750;28;20222;-80
2021/12/22 04:09:11;;;;;;;34.83;15.07;;;-1.90;99.90;;;;;;5075562;28;20196;-79
2021/12/22 04:11:38;;;;;;;41.80;16.40;;;-1.90;99.90;;;;;;5075513;28;20624;-79
2021/12/22 04:14:06;;;;;;;36.90;15.27;;;-1.90;99.90;;;;;;5075441;28;20219;-80
2021/12/22 04:16:33;;;;;;;38.87;16.33;;;-1.90;99.90;;;;;;5075091;28;20196;-79
2021/12/22 04:19:01;;;;;;;36.60;14.17;;;-1.90;99.90;;;;;;5075360;28;20191;-80
2021/12/22 04:21:29;;;;;;;31.93;13.80;;;-1.80;99.90;;;;;;5075277;28;20192;-80
2021/12/22 04:23:56;;;;;;;34.50;13.37;;;-1.80;99.90;;;;;;5075110;28;20277;-80
2021/12/22 04:26:23;;;;;;;35.27;14.43;;;-1.80;99.90;;;;;;5075015;28;20198;-79
2021/12/22 04:28:50;;;;;;;34.70;14.63;;;-1.80;99.90;;;;;;5074907;28;20718;-80
2021/12/22 04:31:17;;;;;;;37.83;14.40;;;-1.70;99.90;;;;;;5075255;28;20246;-79
2021/12/22 04:33:44;;;;;;;39.83;16.20;;;-1.70;99.90;;;;;;5074997;28;20215;-79
2021/12/22 04:36:13;;;;;;;39.17;14.67;;;-1.70;99.90;;;;;;5074856;28;20196;-79
2021/12/22 04:38:40;;;;;;;38.73;16.80;;;-1.70;99.90;;;;;;5074684;28;20188;-80
2021/12/22 04:41:07;;;;;;;45.50;19.07;;;-1.60;99.90;;;;;;5075022;28;20214;-79
2021/12/22 04:43:34;;;;;;;45.37;21.33;;;-1.60;99.90;;;;;;5074980;28;20200;-79
2021/12/22 04:46:01;;;;;;;38.50;17.90;;;-1.60;99.90;;;;;;5075118;28;20554;-79
2021/12/22 04:48:28;;;;;;;41.33;15.80;;;-1.60;99.90;;;;;;5074900;28;20607;-80
2021/12/22 04:50:55;;;;;;;32.77;15.70;;;-1.60;99.90;;;;;;5074618;28;20652;-80
2021/12/22 04:53:26;;;;;;;36.17;17.17;;;-1.60;99.90;;;;;;5074418;28;20199;-79
2021/12/22 04:55:53;;;;;;;44.33;20.17;;;-1.60;99.90;;;;;;5074511;28;20191;-79
2021/12/22 04:58:20;;;;;;;41.67;17.77;;;-1.60;99.90;;;;;;5074786;28;20241;-79
2021/12/22 05:00:47;;;;;;;38.37;16.73;;;-1.60;99.90;;;;;;5074313;28;20192;-80
2021/12/22 05:03:14;;;;;;;41.53;16.93;;;-1.60;99.90;;;;;;5074329;28;20245;-79
2021/12/22 05:05:41;;;;;;;34.30;15.30;;;-1.60;99.90;;;;;;5074633;28;20277;-79
2021/12/22 05:08:08;;;;;;;43.27;19.90;;;-1.60;99.90;;;;;;5074618;28;20191;-79
2021/12/22 05:10:38;;;;;;;45.93;20.33;;;-1.60;99.90;;;;;;5073995;28;20215;-80
2021/12/22 05:13:06;;;;;;;45.03;20.63;;;-1.60;99.90;;;;;;5074499;28;20241;-79
2021/12/22 05:15:38;;;;;;;41.57;19.07;;;-1.60;99.90;;;;;;5074296;28;20215;-79
2021/12/22 05:18:23;;;;;;;40.13;17.67;;;-1.60;99.90;;;;;;5074335;28;20649;-80
2021/12/22 05:20:51;;;;;;;42.30;19.83;;;-1.60;99.90;;;;;;5074292;28;20237;-79
2021/12/22 05:23:19;;;;;;;40.10;20.10;;;-1.60;99.90;;;;;;5074320;28;20329;-79
2021/12/22 05:25:47;;;;;;;46.83;19.60;;;-1.60;99.90;;;;;;5074162;28;20225;-79
2021/12/22 05:28:14;;;;;;;38.13;17.37;;;-1.60;99.90;;;;;;5073864;28;20192;-80
2021/12/22 05:30:41;;;;;;;34.03;15.10;;;-1.60;99.90;;;;;;5073735;28;20188;-79
2021/12/22 05:33:09;;;;;;;33.87;14.77;;;-1.60;99.90;;;;;;5073981;28;20195;-80
2021/12/22 05:35:36;;;;;;;31.83;14.70;;;-1.60;99.90;;;;;;5073853;28;20265;-79
2021/12/22 05:38:03;;;;;;;42.37;18.80;;;-1.50;99.90;;;;;;5074127;28;20192;-80
2021/12/22 05:40:30;;;;;;;40.70;19.23;;;-1.50;99.90;;;;;;5073957;28;20200;-79
2021/12/22 05:42:59;;;;;;;39.17;19.00;;;-1.50;99.90;;;;;;5073809;28;20203;-79
2021/12/22 05:45:26;;;;;;;42.47;20.10;;;-1.50;99.90;;;;;;5073731;28;20196;-80
2021/12/22 05:47:54;;;;;;;43.13;20.63;;;-1.50;99.90;;;;;;5073434;28;20592;-79
2021/12/22 05:50:22;;;;;;;46.00;21.47;;;-1.40;99.90;;;;;;5073737;28;20196;-79
2021/12/22 05:52:49;;;;;;;49.57;23.67;;;-1.40;99.90;;;;;;5073260;28;20722;-80
2021/12/22 05:55:17;;;;;;;52.17;24.07;;;-1.40;99.90;;;;;;5073250;28;20215;-79
2021/12/22 05:57:44;;;;;;;47.97;21.53;;;-1.40;99.90;;;;;;5073194;28;20291;-79
2021/12/22 06:00:14;;;;;;;44.10;18.43;;;-1.40;99.90;;;;;;5073428;28;20196;-79
2021/12/22 06:02:44;;;;;;;40.20;18.30;;;-1.40;99.90;;;;;;5073847;28;20192;-79
2021/12/22 06:05:11;;;;;;;45.03;20.37;;;-1.40;99.90;;;;;;5072994;28;20211;-79
2021/12/22 06:07:38;;;;;;;41.50;19.47;;;-1.40;99.90;;;;;;5073067;28;20599;-80
2021/12/22 06:10:07;;;;;;;55.37;24.30;;;-1.30;99.90;;;;;;5073390;28;20192;-80
2021/12/22 06:12:34;;;;;;;46.90;20.47;;;-1.30;99.90;;;;;;5073645;28;20187;-80
2021/12/22 06:15:01;;;;;;;42.80;18.77;;;-1.30;99.90;;;;;;5072795;28;20615;-79
2021/12/22 06:17:30;;;;;;;38.10;18.30;;;-1.30;99.90;;;;;;5072865;28;20234;-80
2021/12/22 06:20:03;;;;;;;40.20;19.63;;;-1.20;99.90;;;;;;5073099;28;20195;-79
2021/12/22 06:22:32;;;;;;;43.57;22.33;;;-1.20;99.90;;;;;;5072749;28;20271;-79
2021/12/22 06:25:03;;;;;;;44.37;18.97;;;-1.20;99.90;;;;;;5073008;28;20378;-79
2021/12/22 06:27:30;;;;;;;44.53;20.97;;;-1.20;99.90;;;;;;5072744;28;20700;-80
2021/12/22 06:29:57;;;;;;;56.37;24.83;;;-1.10;99.90;;;;;;5072951;28;20257;-80
2021/12/22 06:32:24;;;;;;;51.50;26.20;;;-1.10;99.90;;;;;;5072623;28;20192;-79
2021/12/22 06:34:52;;;;;;;41.70;21.73;;;-1.10;99.90;;;;;;5072407;28;20680;-79
2021/12/22 06:37:19;;;;;;;42.83;20.13;;;-1.10;99.90;;;;;;5072486;28;20195;-79
2021/12/22 06:39:46;;;;;;;44.77;20.13;;;-1.00;99.90;;;;;;5072530;28;20609;-79
2021/12/22 06:42:13;;;;;;;45.67;20.10;;;-1.00;99.90;;;;;;5072859;28;20378;-79
2021/12/22 06:44:40;;;;;;;38.97;17.43;;;-1.00;99.90;;;;;;5073022;28;20249;-79
2021/12/22 06:47:10;;;;;;;111.60;43.63;;;-1.00;99.90;;;;;;5072926;28;20196;-79
2021/12/22 06:49:37;;;;;;;135.17;57.33;;;-1.00;99.90;;;;;;5072608;28;20203;-79
2021/12/22 06:52:06;;;;;;;64.43;32.63;;;-1.00;99.90;;;;;;5072694;28;20265;-79
2021/12/22 06:54:33;;;;;;;55.40;28.47;;;-1.00;99.90;;;;;;5072493;28;20250;-79
2021/12/22 06:57:01;;;;;;;48.13;24.47;;;-1.00;99.90;;;;;;5072246;28;20188;-79
2021/12/22 06:59:28;;;;;;;53.10;23.97;;;-1.00;99.90;;;;;;5072311;28;20195;-79
2021/12/22 07:01:55;;;;;;;48.93;22.77;;;-1.00;99.90;;;;;;5078004;28;20652;-82
2021/12/22 07:04:23;;;;;;;40.10;19.60;;;-1.00;99.90;;;;;;5076221;28;20226;-80
2021/12/22 07:06:57;;;;;;;52.27;23.87;;;-1.10;99.90;;;;;;5077874;28;20282;-82
2021/12/22 07:09:29;;;;;;;47.50;22.90;;;-1.10;99.90;;;;;;5075899;28;20175;-80
2021/12/22 07:11:56;;;;;;;55.47;28.30;;;-1.20;99.90;;;;;;5078844;28;20246;-80
2021/12/22 07:14:23;;;;;;;66.43;31.43;;;-1.20;99.90;;;;;;5076562;28;20200;-80
2021/12/22 07:16:53;;;;;;;79.47;34.10;;;-1.20;99.90;;;;;;5077337;28;20195;-80
2021/12/22 07:19:27;;;;;;;72.70;34.37;;;-1.20;99.90;;;;;;5092073;28;20172;-82
2021/12/22 07:21:55;;;;;;;62.17;32.77;;;-1.20;99.90;;;;;;5099638;28;20190;-81
2021/12/22 07:24:22;;;;;;;115.33;65.20;;;-1.20;99.90;;;;;;5099544;28;20223;-79
2021/12/22 07:26:51;;;;;;;95.07;46.17;;;-1.30;99.90;;;;;;5078563;28;20282;-81
2021/12/22 07:29:25;;;;;;;146.77;66.40;;;-1.20;99.90;;;;;;5101808;28;20203;-84
2021/12/22 07:32:02;;;;;;;75.07;36.83;;;-1.20;99.90;;;;;;5096778;28;20178;-79
2021/12/22 07:34:55;;;;;;;68.77;34.00;;;-1.20;99.90;;;;;;5088586;28;20213;-81
2021/12/22 07:37:29;;;;;;;54.17;28.23;;;-1.20;99.90;;;;;;5084257;28;20529;-81
2021/12/22 07:39:57;;;;;;;50.17;25.17;;;-1.10;99.90;;;;;;5082586;28;20199;-78
2021/12/22 07:42:28;;;;;;;47.87;25.37;;;-1.10;99.90;;;;;;5090429;28;20202;-81
2021/12/22 07:45:04;;;;;;;55.87;27.07;;;-1.10;99.90;;;;;;5094893;28;20218;-82
2021/12/22 07:47:35;;;;;;;55.80;27.57;;;-1.10;99.90;;;;;;5102830;28;20194;-83
2021/12/22 07:50:05;;;;;;;56.87;31.40;;;-1.00;99.90;;;;;;5097067;28;20187;-79
2021/12/22 07:52:35;;;;;;;55.40;25.97;;;-1.00;99.90;;;;;;5099060;28;20184;-80
2021/12/22 07:55:04;;;;;;;1999.90;999.90;;;-1.00;99.90;;;;;;5079703;28;20200;-79
2021/12/22 07:57:39;;;;;;;1999.90;999.90;;;-1.00;99.90;;;;;;5091423;28;20184;-82
2021/12/22 08:00:13;;;;;;;1999.90;999.90;;;-0.90;99.90;;;;;;5102860;28;20195;-82
2021/12/22 08:03:01;;;;;;;1999.90;999.90;;;-0.90;99.90;;;;;;5102031;28;20203;-82
2021/12/22 08:05:28;;;;;;;107.83;38.23;;;-0.90;99.90;;;;;;5088836;28;20219;-80
2021/12/22 08:08:00;;;;;;;119.30;34.60;;;-0.80;99.90;;;;;;5088927;28;20200;-82
2021/12/22 08:10:34;;;;;;;120.73;39.10;;;-0.80;99.90;;;;;;5102436;28;20210;-81
2021/12/22 08:13:18;;;;;;;1999.90;999.90;;;-0.80;99.90;;;;;;5096062;28;20201;-80
2021/12/22 08:15:46;;;;;;;1999.90;999.90;;;-0.80;99.90;;;;;;5081915;28;20215;-79
2021/12/22 08:18:20;;;;;;;84.67;38.27;;;-0.80;99.90;;;;;;5085847;28;20203;-81
2021/12/22 08:20:53;;;;;;;75.97;35.60;;;-0.80;99.90;;;;;;5097440;28;20203;-83
2021/12/22 08:23:24;;;;;;;73.97;33.50;;;-0.70;99.90;;;;;;5102901;28;20187;-80
2021/12/22 08:25:58;;;;;;;32.97;12.03;;;-0.70;99.90;;;;;;5102675;28;20210;-80
2021/12/22 08:28:36;;;;;;;81.73;36.00;;;-0.70;99.90;;;;;;5097992;28;20540;-80
2021/12/22 08:31:03;;;;;;;66.30;34.73;;;-0.70;99.90;;;;;;5094523;28;20183;-80
2021/12/22 08:33:37;;;;;;;59.87;27.93;;;-0.70;99.90;;;;;;5094450;28;20187;-80
2021/12/22 08:38:53;;;;;;;82.23;38.40;;;-0.70;99.90;;;;;;5096683;28;20233;-79
2021/12/22 08:41:23;;;;;;;70.37;32.87;;;-0.60;99.90;;;;;;5104232;28;20569;-84
2021/12/22 08:43:54;;;;;;;160.10;104.00;;;-0.60;99.90;;;;;;5107476;27;20191;-81
2021/12/22 08:46:28;;;;;;;69.50;38.40;;;-0.50;99.90;;;;;;5111004;28;20192;-84
2021/12/22 08:48:58;;;;;;;45.93;24.43;;;-0.50;99.90;;;;;;5108205;28;20625;-82
2021/12/22 08:51:37;;;;;;;33.03;17.67;;;-0.50;99.90;;;;;;5085483;28;20195;-81
2021/12/22 08:55:04;;;;;;;31.67;16.53;;;-0.50;99.90;;;;;;5078127;28;20180;-79
2021/12/22 09:01:43;;;;;;;35.70;17.77;;;-0.50;99.90;;;;;;5089154;28;20253;-83
2021/12/22 09:15:27;;;;;;;48.17;28.30;;;-0.50;99.90;;;;;;5019929;28;20215;-82
2021/12/22 09:25:27;;;;;;;82.23;39.20;;;-0.30;99.90;;;;;;4972174;28;20192;-80
2021/12/22 09:28:51;;;;;;;154.73;60.03;;;-0.30;99.90;;;;;;4978014;28;20194;-80
2021/12/22 09:31:23;;;;;;;154.53;66.17;;;-0.30;99.90;;;;;;4973850;28;20195;-80
2021/12/22 09:33:50;;;;;;;92.13;47.07;;;-0.20;99.90;;;;;;4978107;28;20195;-79
2021/12/22 09:36:17;;;;;;;62.17;32.17;;;-0.20;99.90;;;;;;4978689;28;20215;-79
2021/12/22 09:38:47;;;;;;;81.10;37.57;;;-0.20;99.90;;;;;;4977654;28;20199;-80
2021/12/22 09:41:15;;;;;;;60.27;27.80;;;-0.10;99.90;;;;;;4980871;28;20195;-82
2021/12/22 09:43:43;;;;;;;76.33;34.10;;;-0.10;99.90;;;;;;4977589;28;20625;-80
2021/12/22 09:46:15;;;;;;;76.73;37.53;;;-0.10;99.90;;;;;;4977831;28;20199;-80
2021/12/22 09:48:52;;;;;;;74.17;34.00;;;-0.10;99.90;;;;;;4978522;28;20183;-81
2021/12/22 09:54:10;;;;;;;55.80;27.87;;;-0.10;99.90;;;;;;4979137;28;20199;-81
2021/12/22 09:56:42;;;;;;;58.50;30.30;;;-0.10;99.90;;;;;;4977470;28;20221;-79
2021/12/22 09:59:10;;;;;;;80.87;41.87;;;-0.10;99.90;;;;;;4977034;28;20748;-79
2021/12/22 10:01:37;;;;;;;53.30;28.07;;;-0.10;99.90;;;;;;4977031;28;20246;-80
2021/12/22 10:04:07;;;;;;;38.53;20.60;;;-0.10;99.90;;;;;;4977033;28;20243;-82
2021/12/22 10:06:34;;;;;;;40.23;22.37;;;-0.10;99.90;;;;;;4977800;28;20674;-80
2021/12/22 10:09:04;;;;;;;46.00;21.83;;;-0.10;99.90;;;;;;4980712;28;20199;-80
2021/12/22 10:11:33;;;;;;;44.90;22.37;;;-0.10;99.90;;;;;;4974580;28;20269;-80
2021/12/22 10:14:01;;;;;;;38.40;19.70;;;-0.10;99.90;;;;;;4972150;28;20249;-80
2021/12/22 10:16:29;;;;;;;39.67;19.67;;;0.00;99.90;;;;;;4972112;28;20233;-80
2021/12/22 10:19:07;;;;;;;43.83;21.73;;;0.00;99.90;;;;;;4974151;28;20227;-80
2021/12/22 10:21:37;;;;;;;51.40;24.37;;;0.00;99.90;;;;;;4986586;28;20179;-79
2021/12/22 10:24:07;;;;;;;46.00;23.57;;;0.10;99.90;;;;;;4989616;28;20203;-81
2021/12/22 10:26:39;;;;;;;47.17;23.30;;;0.10;99.90;;;;;;4975404;28;20202;-80
2021/12/22 10:29:15;;;;;;;43.07;21.03;;;0.10;99.90;;;;;;4977073;28;20287;-78
2021/12/22 10:31:43;;;;;;;43.20;22.10;;;0.20;99.90;;;;;;4975389;28;20198;-80
2021/12/22 10:34:13;;;;;;;45.53;22.23;;;0.20;99.90;;;;;;4975450;28;20290;-80
2021/12/22 10:36:45;;;;;;;56.23;26.47;;;0.20;99.90;;;;;;4978744;28;20202;-80
2021/12/22 10:39:21;;;;;;;44.53;22.27;;;0.30;99.90;;;;;;4993983;28;20282;-79
2021/12/22 10:41:50;;;;;;;40.43;22.33;;;0.20;99.90;;;;;;4993329;28;20590;-80
2021/12/22 10:44:35;;;;;;;42.07;23.30;;;0.30;99.90;;;;;;4993142;28;20226;-79
2021/12/22 10:47:18;;;;;;;41.77;22.23;;;0.30;99.90;;;;;;5055076;28;20285;-80
2021/12/22 10:50:00;;;;;;;45.10;24.07;;;0.40;99.90;;;;;;5093064;28;20211;-82
2021/12/22 10:52:30;;;;;;;46.13;25.00;;;0.30;99.90;;;;;;5090025;28;20623;-81
2021/12/22 10:55:08;;;;;;;37.83;19.77;;;0.40;99.90;;;;;;5090483;28;20290;-79
2021/12/22 10:57:43;;;;;;;44.43;22.53;;;0.40;99.90;;;;;;5092084;28;20595;-82
2021/12/22 11:00:19;;;;;;;36.97;20.47;;;0.40;99.90;;;;;;5090456;28;20175;-78
2021/12/22 11:03:02;;;;;;;44.27;23.63;;;0.50;99.90;;;;;;5101742;28;20663;-78
2021/12/22 11:05:30;;;;;;;34.50;17.37;;;0.50;99.90;;;;;;5112280;28;20247;-78
2021/12/22 11:07:58;;;;;;;32.47;17.73;;;0.60;99.90;;;;;;5092700;28;20298;-78
2021/12/22 11:10:26;;;;;;;36.37;19.23;;;0.60;99.90;;;;;;5091401;28;20721;-78
2021/12/22 11:13:05;;;;;;;37.97;19.07;;;0.60;99.90;;;;;;5092060;28;20268;-79
2021/12/22 11:15:41;;;;;;;42.10;20.13;;;0.70;99.90;;;;;;5091762;28;20210;-79
2021/12/22 11:18:24;;;;;;;35.30;17.40;;;0.70;99.90;;;;;;5091936;28;20211;-78
2021/12/22 11:21:13;;;;;;;37.03;18.17;;;0.70;99.90;;;;;;5090239;28;20233;-79
2021/12/22 11:23:40;;;;;;;33.93;19.10;;;0.70;99.90;;;;;;5080024;28;20241;-79
2021/12/22 11:26:08;;;;;;;36.47;18.47;;;0.70;99.90;;;;;;5089083;28;20192;-79
2021/12/22 11:28:35;;;;;;;30.87;17.20;;;0.70;99.90;;;;;;5091322;28;20533;-79
2021/12/22 11:31:04;;;;;;;35.17;18.50;;;0.70;99.90;;;;;;5092424;28;20621;-79
2021/12/22 11:33:32;;;;;;;32.57;16.43;;;0.70;99.90;;;;;;5091960;28;20315;-79
2021/12/22 11:36:00;;;;;;;36.33;18.57;;;0.70;99.90;;;;;;5091050;28;20207;-79
2021/12/22 11:38:31;;;;;;;32.27;17.37;;;0.70;99.90;;;;;;5092642;28;20240;-79
2021/12/22 11:41:09;;;;;;;35.17;18.30;;;0.70;99.90;;;;;;5092641;28;20245;-79
2021/12/22 11:43:37;;;;;;;30.97;17.43;;;0.70;99.90;;;;;;5092250;28;20183;-79
2021/12/22 11:46:05;;;;;;;34.03;16.63;;;0.70;99.90;;;;;;5091162;28;20644;-79
2021/12/22 11:48:33;;;;;;;36.50;17.80;;;0.80;99.90;;;;;;5090875;28;20191;-79
2021/12/22 11:51:00;;;;;;;36.50;19.87;;;0.70;99.90;;;;;;5091691;28;20192;-79
2021/12/22 11:53:53;;;;;;;32.20;17.83;;;0.80;99.90;;;;;;5091576;28;20244;-79
2021/12/22 11:56:37;;;;;;;32.90;16.00;;;0.80;99.90;;;;;;5092177;28;20260;-79
2021/12/22 11:59:05;;;;;;;34.93;16.60;;;0.80;99.90;;;;;;5091640;28;20720;-79
2021/12/22 12:01:32;;;;;;;33.07;16.87;;;0.80;99.90;;;;;;5091798;28;20709;-79
2021/12/22 12:04:15;;;;;;;34.83;17.37;;;0.80;99.90;;;;;;5092749;28;20195;-79
2021/12/22 12:06:49;;;;;;;28.33;16.77;;;0.80;99.90;;;;;;5096070;28;20195;-79
2021/12/22 12:09:23;;;;;;;27.20;14.27;;;0.80;99.90;;;;;;5095794;28;20190;-79
2021/12/22 12:11:54;;;;;;;29.43;15.10;;;0.80;99.90;;;;;;5095925;28;20288;-79
2021/12/22 12:14:44;;;;;;;29.80;15.93;;;0.80;99.90;;;;;;5095448;28;20214;-79
2021/12/22 12:23:28;;;;;;;28.20;15.50;;;0.80;99.90;;;;;;5095373;28;20190;-79
2021/12/22 12:25:57;;;;;;;28.17;15.13;;;0.80;99.90;;;;;;5095769;28;20330;-79
2021/12/22 12:28:25;;;;;;;35.30;17.53;;;0.80;99.90;;;;;;5095587;28;20242;-79
2021/12/22 12:30:55;;;;;;;28.80;15.73;;;0.90;99.90;;;;;;5095523;28;20241;-79
2021/12/22 12:33:27;;;;;;;28.93;16.00;;;0.90;99.90;;;;;;5095130;28;20195;-79
2021/12/22 12:36:06;;;;;;;60.70;32.37;;;0.90;99.90;;;;;;5095403;28;20203;-79
2021/12/22 12:38:51;;;;;;;41.80;22.97;;;0.90;99.90;;;;;;5095536;28;20183;-79
2021/12/22 12:41:28;;;;;;;38.80;21.80;;;0.90;99.90;;;;;;5095485;28;20266;-79
2021/12/22 12:44:10;;;;;;;34.23;19.17;;;0.90;99.90;;;;;;5095534;28;20183;-79
2021/12/22 12:46:47;;;;;;;42.23;24.07;;;0.90;99.90;;;;;;5094948;28;20183;-79
2021/12/22 12:49:34;;;;;;;38.43;21.10;;;0.90;99.90;;;;;;5094860;28;20240;-79
2021/12/22 12:52:10;;;;;;;53.37;29.70;;;1.00;99.90;;;;;;5095340;28;20270;-79
2021/12/22 12:54:41;;;;;;;60.03;31.97;;;1.00;99.90;;;;;;5095220;28;20240;-79
2021/12/22 12:57:27;;;;;;;48.07;24.93;;;1.00;99.90;;;;;;5094952;28;20203;-79
2021/12/22 13:00:06;;;;;;;42.57;23.47;;;1.00;99.90;;;;;;5095103;28;20206;-79
2021/12/22 13:02:37;;;;;;;50.43;25.70;;;1.00;99.90;;;;;;5094706;28;20180;-79
2021/12/22 13:05:13;;;;;;;47.77;23.97;;;1.00;99.90;;;;;;5096004;28;20211;-79
2021/12/22 13:07:41;;;;;;;50.13;23.33;;;1.00;99.90;;;;;;5095552;28;20194;-78
2021/12/22 13:10:14;;;;;;;57.00;28.30;;;1.10;99.90;;;;;;5096449;28;20195;-78
2021/12/22 13:15:46;;;;;;;46.80;22.97;;;1.10;99.90;;;;;;5095607;28;20560;-79
2021/12/22 13:18:29;;;;;;;46.23;22.30;;;1.10;99.90;;;;;;5095119;28;20270;-79
2021/12/22 13:21:00;;;;;;;50.27;23.30;;;1.10;99.90;;;;;;5093988;28;20205;-79
2021/12/22 13:23:31;;;;;;;41.03;21.57;;;1.10;99.90;;;;;;5096790;28;20215;-79
2021/12/22 13:25:58;;;;;;;43.07;23.13;;;1.10;99.90;;;;;;5098754;28;20201;-79